sensor_id;sensor_type;location;lat;lon;timestamp;P1;durP1;ratioP1;P2;durP2;ratioP2
73585;SDS011;61865;50.232;18.614;2022-08-19T00:01:25;12.27;;;7.45;;
73585;SDS011;61865;50.232;18.614;2022-08-19T00:03:50;11.80;;;7.72;;
73585;SDS011;61865;50.232;18.614;2022-08-19T00:06:12;13.43;;;7.85;;
73585;SDS011;61865;50.232;18.614;2022-08-19T00:08:35;12.27;;;8.23;;
73585;SDS011;61865;50.232;18.614;2022-08-19T00:10:57;14.32;;;8.05;;
73585;SDS011;61865;50.232;18.614;2022-08-19T00:13:18;16.17;;;8.10;;
73585;SDS011;61865;50.232;18.614;2022-08-19T00:15:40;14.30;;;8.18;;
73585;SDS011;61865;50.232;18.614;2022-08-19T00:18:04;13.32;;;8.07;;
73585;SDS011;61865;50.232;18.614;2022-08-19T00:20:27;10.40;;;8.00;;
73585;SDS011;61865;50.232;18.614;2022-08-19T00:22:49;12.68;;;8.27;;
73585;SDS011;61865;50.232;18.614;2022-08-19T00:25:11;12.73;;;8.20;;
73585;SDS011;61865;50.232;18.614;2022-08-19T00:27:33;13.00;;;8.52;;
73585;SDS011;61865;50.232;18.614;2022-08-19T00:29:55;16.00;;;7.90;;
73585;SDS011;61865;50.232;18.614;2022-08-19T00:32:18;10.85;;;7.75;;
73585;SDS011;61865;50.232;18.614;2022-08-19T00:34:40;12.35;;;7.88;;
73585;SDS011;61865;50.232;18.614;2022-08-19T00:37:04;13.73;;;8.40;;
73585;SDS011;61865;50.232;18.614;2022-08-19T00:39:26;12.98;;;8.52;;
73585;SDS011;61865;50.232;18.614;2022-08-19T00:41:49;14.07;;;8.73;;
73585;SDS011;61865;50.232;18.614;2022-08-19T00:44:12;10.43;;;7.78;;
73585;SDS011;61865;50.232;18.614;2022-08-19T00:46:40;11.93;;;8.38;;
73585;SDS011;61865;50.232;18.614;2022-08-19T00:49:06;13.05;;;8.65;;
73585;SDS011;61865;50.232;18.614;2022-08-19T00:51:34;11.55;;;8.02;;
73585;SDS011;61865;50.232;18.614;2022-08-19T00:53:57;11.93;;;7.90;;
73585;SDS011;61865;50.232;18.614;2022-08-19T00:56:21;12.05;;;8.73;;
73585;SDS011;61865;50.232;18.614;2022-08-19T00:58:44;13.00;;;8.27;;
73585;SDS011;61865;50.232;18.614;2022-08-19T01:01:06;14.98;;;9.05;;
73585;SDS011;61865;50.232;18.614;2022-08-19T01:03:28;14.48;;;8.57;;
73585;SDS011;61865;50.232;18.614;2022-08-19T01:05:51;14.18;;;9.02;;
73585;SDS011;61865;50.232;18.614;2022-08-19T01:08:15;15.50;;;9.93;;
73585;SDS011;61865;50.232;18.614;2022-08-19T01:10:41;11.63;;;9.18;;
73585;SDS011;61865;50.232;18.614;2022-08-19T01:13:07;13.23;;;9.27;;
73585;SDS011;61865;50.232;18.614;2022-08-19T01:15:30;17.40;;;9.05;;
73585;SDS011;61865;50.232;18.614;2022-08-19T01:17:53;13.25;;;9.63;;
73585;SDS011;61865;50.232;18.614;2022-08-19T01:20:18;15.50;;;9.13;;
73585;SDS011;61865;50.232;18.614;2022-08-19T01:22:44;12.10;;;9.25;;
73585;SDS011;61865;50.232;18.614;2022-08-19T01:25:08;15.68;;;9.70;;
73585;SDS011;61865;50.232;18.614;2022-08-19T01:27:36;20.42;;;10.75;;
73585;SDS011;61865;50.232;18.614;2022-08-19T01:29:59;14.32;;;9.88;;
73585;SDS011;61865;50.232;18.614;2022-08-19T01:32:21;13.85;;;9.25;;
73585;SDS011;61865;50.232;18.614;2022-08-19T01:34:43;16.00;;;10.23;;
73585;SDS011;61865;50.232;18.614;2022-08-19T01:37:07;15.35;;;9.90;;
73585;SDS011;61865;50.232;18.614;2022-08-19T01:39:33;15.13;;;9.95;;
73585;SDS011;61865;50.232;18.614;2022-08-19T01:41:55;14.88;;;9.68;;
73585;SDS011;61865;50.232;18.614;2022-08-19T01:44:17;13.73;;;9.82;;
73585;SDS011;61865;50.232;18.614;2022-08-19T01:46:40;15.50;;;10.13;;
73585;SDS011;61865;50.232;18.614;2022-08-19T01:49:03;16.23;;;10.25;;
73585;SDS011;61865;50.232;18.614;2022-08-19T01:51:26;17.77;;;10.52;;
73585;SDS011;61865;50.232;18.614;2022-08-19T01:53:48;16.05;;;10.05;;
73585;SDS011;61865;50.232;18.614;2022-08-19T01:56:12;14.38;;;9.77;;
73585;SDS011;61865;50.232;18.614;2022-08-19T01:58:35;14.07;;;9.55;;
73585;SDS011;61865;50.232;18.614;2022-08-19T02:01:01;15.60;;;10.27;;
73585;SDS011;61865;50.232;18.614;2022-08-19T02:03:23;15.98;;;9.82;;
73585;SDS011;61865;50.232;18.614;2022-08-19T02:05:45;14.88;;;10.52;;
73585;SDS011;61865;50.232;18.614;2022-08-19T02:08:07;15.27;;;10.48;;
73585;SDS011;61865;50.232;18.614;2022-08-19T02:10:30;15.40;;;10.18;;
73585;SDS011;61865;50.232;18.614;2022-08-19T02:12:53;16.42;;;10.73;;
73585;SDS011;61865;50.232;18.614;2022-08-19T02:15:15;18.40;;;10.57;;
73585;SDS011;61865;50.232;18.614;2022-08-19T02:17:39;15.60;;;10.50;;
73585;SDS011;61865;50.232;18.614;2022-08-19T02:20:01;17.38;;;10.95;;
73585;SDS011;61865;50.232;18.614;2022-08-19T02:22:23;19.20;;;11.35;;
73585;SDS011;61865;50.232;18.614;2022-08-19T02:24:46;15.07;;;11.57;;
73585;SDS011;61865;50.232;18.614;2022-08-19T02:27:08;15.23;;;11.52;;
73585;SDS011;61865;50.232;18.614;2022-08-19T02:29:32;20.30;;;11.30;;
73585;SDS011;61865;50.232;18.614;2022-08-19T02:31:54;19.52;;;11.40;;
73585;SDS011;61865;50.232;18.614;2022-08-19T02:34:16;17.55;;;10.95;;
73585;SDS011;61865;50.232;18.614;2022-08-19T02:36:38;14.57;;;10.77;;
73585;SDS011;61865;50.232;18.614;2022-08-19T02:39:00;17.00;;;11.05;;
73585;SDS011;61865;50.232;18.614;2022-08-19T02:41:21;17.52;;;11.43;;
73585;SDS011;61865;50.232;18.614;2022-08-19T02:43:45;15.60;;;11.32;;
73585;SDS011;61865;50.232;18.614;2022-08-19T02:46:13;17.58;;;11.85;;
73585;SDS011;61865;50.232;18.614;2022-08-19T02:48:37;17.58;;;11.05;;
73585;SDS011;61865;50.232;18.614;2022-08-19T02:50:59;17.38;;;11.10;;
73585;SDS011;61865;50.232;18.614;2022-08-19T02:53:22;16.30;;;11.43;;
73585;SDS011;61865;50.232;18.614;2022-08-19T02:55:44;17.02;;;12.40;;
73585;SDS011;61865;50.232;18.614;2022-08-19T02:58:07;17.50;;;11.93;;
73585;SDS011;61865;50.232;18.614;2022-08-19T03:00:29;16.63;;;12.13;;
73585;SDS011;61865;50.232;18.614;2022-08-19T03:02:52;21.75;;;12.15;;
73585;SDS011;61865;50.232;18.614;2022-08-19T03:05:16;17.80;;;12.30;;
73585;SDS011;61865;50.232;18.614;2022-08-19T03:07:37;15.15;;;10.80;;
73585;SDS011;61865;50.232;18.614;2022-08-19T03:09:59;17.67;;;12.05;;
73585;SDS011;61865;50.232;18.614;2022-08-19T03:12:21;15.23;;;11.60;;
73585;SDS011;61865;50.232;18.614;2022-08-19T03:14:43;17.55;;;11.82;;
73585;SDS011;61865;50.232;18.614;2022-08-19T03:17:05;22.30;;;12.10;;
73585;SDS011;61865;50.232;18.614;2022-08-19T03:19:29;18.50;;;11.98;;
73585;SDS011;61865;50.232;18.614;2022-08-19T03:21:52;16.13;;;11.63;;
73585;SDS011;61865;50.232;18.614;2022-08-19T03:24:15;20.83;;;12.70;;
73585;SDS011;61865;50.232;18.614;2022-08-19T03:26:39;17.40;;;11.63;;
73585;SDS011;61865;50.232;18.614;2022-08-19T03:29:02;15.52;;;11.45;;
73585;SDS011;61865;50.232;18.614;2022-08-19T03:31:25;19.15;;;12.85;;
73585;SDS011;61865;50.232;18.614;2022-08-19T03:33:48;19.60;;;12.25;;
73585;SDS011;61865;50.232;18.614;2022-08-19T03:36:13;17.60;;;11.50;;
73585;SDS011;61865;50.232;18.614;2022-08-19T03:38:36;18.50;;;13.13;;
73585;SDS011;61865;50.232;18.614;2022-08-19T03:41:02;18.45;;;12.30;;
73585;SDS011;61865;50.232;18.614;2022-08-19T03:43:26;17.42;;;12.15;;
73585;SDS011;61865;50.232;18.614;2022-08-19T03:45:48;18.63;;;11.63;;
73585;SDS011;61865;50.232;18.614;2022-08-19T03:48:11;16.75;;;12.32;;
73585;SDS011;61865;50.232;18.614;2022-08-19T03:50:33;16.90;;;12.32;;
73585;SDS011;61865;50.232;18.614;2022-08-19T03:53:01;17.00;;;13.02;;
73585;SDS011;61865;50.232;18.614;2022-08-19T03:55:23;18.98;;;13.32;;
73585;SDS011;61865;50.232;18.614;2022-08-19T03:57:45;15.52;;;12.38;;
73585;SDS011;61865;50.232;18.614;2022-08-19T04:00:08;16.73;;;11.70;;
73585;SDS011;61865;50.232;18.614;2022-08-19T04:02:31;17.77;;;12.70;;
73585;SDS011;61865;50.232;18.614;2022-08-19T04:04:53;16.05;;;12.27;;
73585;SDS011;61865;50.232;18.614;2022-08-19T04:07:15;20.02;;;13.00;;
73585;SDS011;61865;50.232;18.614;2022-08-19T04:09:42;18.55;;;12.77;;
73585;SDS011;61865;50.232;18.614;2022-08-19T04:12:05;18.63;;;12.73;;
73585;SDS011;61865;50.232;18.614;2022-08-19T04:14:28;18.08;;;12.45;;
73585;SDS011;61865;50.232;18.614;2022-08-19T04:16:51;18.73;;;12.73;;
73585;SDS011;61865;50.232;18.614;2022-08-19T04:19:14;20.70;;;11.82;;
73585;SDS011;61865;50.232;18.614;2022-08-19T04:21:37;18.20;;;12.52;;
73585;SDS011;61865;50.232;18.614;2022-08-19T04:23:59;18.60;;;12.82;;
73585;SDS011;61865;50.232;18.614;2022-08-19T04:26:24;14.00;;;11.10;;
73585;SDS011;61865;50.232;18.614;2022-08-19T04:28:48;12.98;;;11.27;;
73585;SDS011;61865;50.232;18.614;2022-08-19T04:31:12;14.82;;;10.13;;
73585;SDS011;61865;50.232;18.614;2022-08-19T04:33:35;17.35;;;11.85;;
73585;SDS011;61865;50.232;18.614;2022-08-19T04:35:57;17.63;;;11.70;;
73585;SDS011;61865;50.232;18.614;2022-08-19T04:38:21;14.80;;;10.82;;
73585;SDS011;61865;50.232;18.614;2022-08-19T04:40:45;15.63;;;10.88;;
73585;SDS011;61865;50.232;18.614;2022-08-19T04:43:27;15.27;;;11.48;;
73585;SDS011;61865;50.232;18.614;2022-08-19T04:45:50;16.33;;;10.60;;
73585;SDS011;61865;50.232;18.614;2022-08-19T04:48:12;17.70;;;11.00;;
73585;SDS011;61865;50.232;18.614;2022-08-19T04:50:34;17.45;;;11.40;;
73585;SDS011;61865;50.232;18.614;2022-08-19T04:52:56;16.05;;;10.93;;
73585;SDS011;61865;50.232;18.614;2022-08-19T04:55:18;18.48;;;11.40;;
73585;SDS011;61865;50.232;18.614;2022-08-19T04:57:40;19.08;;;11.00;;
73585;SDS011;61865;50.232;18.614;2022-08-19T05:00:03;19.65;;;11.35;;
73585;SDS011;61865;50.232;18.614;2022-08-19T05:02:26;15.57;;;11.13;;
73585;SDS011;61865;50.232;18.614;2022-08-19T05:04:49;22.30;;;11.50;;
73585;SDS011;61865;50.232;18.614;2022-08-19T05:07:11;15.15;;;10.70;;
73585;SDS011;61865;50.232;18.614;2022-08-19T05:09:33;17.05;;;10.90;;
73585;SDS011;61865;50.232;18.614;2022-08-19T05:11:56;18.65;;;11.43;;
73585;SDS011;61865;50.232;18.614;2022-08-19T05:14:18;17.45;;;10.77;;
73585;SDS011;61865;50.232;18.614;2022-08-19T05:16:42;17.92;;;11.30;;
73585;SDS011;61865;50.232;18.614;2022-08-19T05:19:04;20.88;;;11.52;;
73585;SDS011;61865;50.232;18.614;2022-08-19T05:21:43;17.33;;;11.23;;
73585;SDS011;61865;50.232;18.614;2022-08-19T05:24:23;23.13;;;11.20;;
73585;SDS011;61865;50.232;18.614;2022-08-19T05:26:46;25.63;;;11.93;;
73585;SDS011;61865;50.232;18.614;2022-08-19T05:29:10;23.80;;;11.32;;
73585;SDS011;61865;50.232;18.614;2022-08-19T05:31:32;19.25;;;11.40;;
73585;SDS011;61865;50.232;18.614;2022-08-19T05:33:55;25.35;;;11.63;;
73585;SDS011;61865;50.232;18.614;2022-08-19T05:36:18;20.38;;;11.13;;
73585;SDS011;61865;50.232;18.614;2022-08-19T05:38:40;23.15;;;10.95;;
73585;SDS011;61865;50.232;18.614;2022-08-19T05:41:05;32.13;;;11.27;;
73585;SDS011;61865;50.232;18.614;2022-08-19T05:43:29;20.60;;;11.05;;
73585;SDS011;61865;50.232;18.614;2022-08-19T05:45:51;25.88;;;11.05;;
73585;SDS011;61865;50.232;18.614;2022-08-19T05:48:13;16.38;;;9.32;;
73585;SDS011;61865;50.232;18.614;2022-08-19T05:50:39;21.77;;;9.82;;
73585;SDS011;61865;50.232;18.614;2022-08-19T05:53:02;27.27;;;11.07;;
73585;SDS011;61865;50.232;18.614;2022-08-19T05:55:24;30.58;;;9.93;;
73585;SDS011;61865;50.232;18.614;2022-08-19T05:57:46;28.52;;;10.52;;
73585;SDS011;61865;50.232;18.614;2022-08-19T06:00:09;31.45;;;10.63;;
73585;SDS011;61865;50.232;18.614;2022-08-19T06:02:32;25.58;;;9.40;;
73585;SDS011;61865;50.232;18.614;2022-08-19T06:04:55;22.15;;;9.43;;
73585;SDS011;61865;50.232;18.614;2022-08-19T06:07:18;24.92;;;9.88;;
73585;SDS011;61865;50.232;18.614;2022-08-19T06:09:40;27.63;;;9.77;;
73585;SDS011;61865;50.232;18.614;2022-08-19T06:12:02;20.65;;;9.07;;
73585;SDS011;61865;50.232;18.614;2022-08-19T06:14:25;17.48;;;8.75;;
73585;SDS011;61865;50.232;18.614;2022-08-19T06:16:49;18.98;;;9.13;;
73585;SDS011;61865;50.232;18.614;2022-08-19T06:19:13;26.45;;;9.35;;
73585;SDS011;61865;50.232;18.614;2022-08-19T06:21:37;24.27;;;8.65;;
73585;SDS011;61865;50.232;18.614;2022-08-19T06:24:01;22.75;;;9.63;;
73585;SDS011;61865;50.232;18.614;2022-08-19T06:26:24;23.25;;;8.85;;
73585;SDS011;61865;50.232;18.614;2022-08-19T06:28:47;16.88;;;8.90;;
73585;SDS011;61865;50.232;18.614;2022-08-19T06:31:10;18.35;;;7.82;;
73585;SDS011;61865;50.232;18.614;2022-08-19T06:33:34;17.40;;;7.68;;
73585;SDS011;61865;50.232;18.614;2022-08-19T06:35:55;12.50;;;7.57;;
73585;SDS011;61865;50.232;18.614;2022-08-19T06:38:17;13.38;;;7.22;;
73585;SDS011;61865;50.232;18.614;2022-08-19T06:40:44;10.30;;;6.97;;
73585;SDS011;61865;50.232;18.614;2022-08-19T06:43:06;11.98;;;7.75;;
73585;SDS011;61865;50.232;18.614;2022-08-19T06:45:27;16.33;;;7.13;;
73585;SDS011;61865;50.232;18.614;2022-08-19T06:47:50;10.75;;;7.10;;
73585;SDS011;61865;50.232;18.614;2022-08-19T06:50:14;15.65;;;6.95;;
73585;SDS011;61865;50.232;18.614;2022-08-19T06:52:36;12.65;;;7.40;;
73585;SDS011;61865;50.232;18.614;2022-08-19T06:54:59;17.67;;;7.03;;
73585;SDS011;61865;50.232;18.614;2022-08-19T06:57:23;13.93;;;7.20;;
73585;SDS011;61865;50.232;18.614;2022-08-19T06:59:45;12.70;;;6.88;;
73585;SDS011;61865;50.232;18.614;2022-08-19T07:02:07;18.00;;;6.75;;
73585;SDS011;61865;50.232;18.614;2022-08-19T07:04:30;17.15;;;6.93;;
73585;SDS011;61865;50.232;18.614;2022-08-19T07:06:56;13.63;;;6.72;;
73585;SDS011;61865;50.232;18.614;2022-08-19T07:09:19;11.57;;;7.00;;
73585;SDS011;61865;50.232;18.614;2022-08-19T07:11:43;11.50;;;7.15;;
73585;SDS011;61865;50.232;18.614;2022-08-19T07:14:06;14.07;;;6.72;;
73585;SDS011;61865;50.232;18.614;2022-08-19T07:16:28;13.85;;;7.13;;
73585;SDS011;61865;50.232;18.614;2022-08-19T07:18:50;13.70;;;7.70;;
73585;SDS011;61865;50.232;18.614;2022-08-19T07:21:13;14.73;;;7.18;;
73585;SDS011;61865;50.232;18.614;2022-08-19T07:23:36;13.02;;;7.10;;
73585;SDS011;61865;50.232;18.614;2022-08-19T07:26:03;17.67;;;7.35;;
73585;SDS011;61865;50.232;18.614;2022-08-19T07:28:26;10.52;;;6.97;;
73585;SDS011;61865;50.232;18.614;2022-08-19T07:30:49;22.45;;;7.85;;
73585;SDS011;61865;50.232;18.614;2022-08-19T07:33:11;16.05;;;6.32;;
73585;SDS011;61865;50.232;18.614;2022-08-19T07:35:33;12.95;;;6.82;;
73585;SDS011;61865;50.232;18.614;2022-08-19T07:37:55;18.38;;;7.10;;
73585;SDS011;61865;50.232;18.614;2022-08-19T07:40:17;18.63;;;7.05;;
73585;SDS011;61865;50.232;18.614;2022-08-19T07:42:39;16.98;;;6.93;;
73585;SDS011;61865;50.232;18.614;2022-08-19T07:45:03;11.50;;;6.13;;
73585;SDS011;61865;50.232;18.614;2022-08-19T07:47:27;13.43;;;6.72;;
73585;SDS011;61865;50.232;18.614;2022-08-19T07:49:50;17.20;;;6.55;;
73585;SDS011;61865;50.232;18.614;2022-08-19T07:52:11;11.82;;;6.93;;
73585;SDS011;61865;50.232;18.614;2022-08-19T07:54:34;17.30;;;6.63;;
73585;SDS011;61865;50.232;18.614;2022-08-19T07:56:59;16.63;;;6.50;;
73585;SDS011;61865;50.232;18.614;2022-08-19T07:59:21;11.82;;;6.28;;
73585;SDS011;61865;50.232;18.614;2022-08-19T08:01:44;16.77;;;6.18;;
73585;SDS011;61865;50.232;18.614;2022-08-19T08:04:07;10.63;;;6.38;;
73585;SDS011;61865;50.232;18.614;2022-08-19T08:09:27;14.52;;;6.22;;
73585;SDS011;61865;50.232;18.614;2022-08-19T08:11:51;10.50;;;6.10;;
73585;SDS011;61865;50.232;18.614;2022-08-19T08:14:15;16.02;;;5.97;;
73585;SDS011;61865;50.232;18.614;2022-08-19T08:16:38;9.00;;;6.07;;
73585;SDS011;61865;50.232;18.614;2022-08-19T08:19:03;10.90;;;6.20;;
73585;SDS011;61865;50.232;18.614;2022-08-19T08:21:27;15.90;;;6.60;;
73585;SDS011;61865;50.232;18.614;2022-08-19T08:23:48;9.68;;;6.35;;
73585;SDS011;61865;50.232;18.614;2022-08-19T08:26:11;18.88;;;7.03;;
73585;SDS011;61865;50.232;18.614;2022-08-19T08:28:34;11.25;;;7.07;;
73585;SDS011;61865;50.232;18.614;2022-08-19T08:30:57;33.38;;;8.73;;
73585;SDS011;61865;50.232;18.614;2022-08-19T08:33:21;71.00;;;11.38;;
73585;SDS011;61865;50.232;18.614;2022-08-19T08:35:45;72.53;;;11.02;;
73585;SDS011;61865;50.232;18.614;2022-08-19T08:38:08;98.03;;;13.02;;
73585;SDS011;61865;50.232;18.614;2022-08-19T08:40:31;13.82;;;6.15;;
73585;SDS011;61865;50.232;18.614;2022-08-19T08:43:00;10.32;;;6.32;;
73585;SDS011;61865;50.232;18.614;2022-08-19T08:45:26;17.98;;;6.97;;
73585;SDS011;61865;50.232;18.614;2022-08-19T08:47:49;16.80;;;6.13;;
73585;SDS011;61865;50.232;18.614;2022-08-19T08:50:18;15.10;;;6.35;;
73585;SDS011;61865;50.232;18.614;2022-08-19T08:52:44;11.95;;;6.60;;
73585;SDS011;61865;50.232;18.614;2022-08-19T08:55:10;11.20;;;6.03;;
73585;SDS011;61865;50.232;18.614;2022-08-19T08:57:35;10.38;;;6.47;;
73585;SDS011;61865;50.232;18.614;2022-08-19T09:00:00;14.00;;;6.20;;
73585;SDS011;61865;50.232;18.614;2022-08-19T09:02:26;14.10;;;6.32;;
73585;SDS011;61865;50.232;18.614;2022-08-19T09:04:48;16.08;;;5.97;;
73585;SDS011;61865;50.232;18.614;2022-08-19T09:07:16;12.63;;;6.03;;
73585;SDS011;61865;50.232;18.614;2022-08-19T09:09:48;11.40;;;6.65;;
73585;SDS011;61865;50.232;18.614;2022-08-19T09:12:15;12.48;;;5.78;;
73585;SDS011;61865;50.232;18.614;2022-08-19T09:14:45;17.52;;;6.15;;
73585;SDS011;61865;50.232;18.614;2022-08-19T09:17:11;10.98;;;6.30;;
73585;SDS011;61865;50.232;18.614;2022-08-19T09:19:34;17.65;;;6.38;;
73585;SDS011;61865;50.232;18.614;2022-08-19T09:21:56;14.98;;;6.20;;
73585;SDS011;61865;50.232;18.614;2022-08-19T09:24:20;13.77;;;6.22;;
73585;SDS011;61865;50.232;18.614;2022-08-19T09:26:42;11.45;;;6.05;;
73585;SDS011;61865;50.232;18.614;2022-08-19T09:29:07;12.18;;;6.40;;
73585;SDS011;61865;50.232;18.614;2022-08-19T09:31:29;22.27;;;6.63;;
73585;SDS011;61865;50.232;18.614;2022-08-19T09:33:53;24.80;;;6.80;;
73585;SDS011;61865;50.232;18.614;2022-08-19T09:36:17;11.35;;;6.28;;
73585;SDS011;61865;50.232;18.614;2022-08-19T09:38:42;9.45;;;6.07;;
73585;SDS011;61865;50.232;18.614;2022-08-19T09:41:04;15.75;;;6.40;;
73585;SDS011;61865;50.232;18.614;2022-08-19T09:43:28;13.45;;;5.60;;
73585;SDS011;61865;50.232;18.614;2022-08-19T09:45:53;10.43;;;5.65;;
73585;SDS011;61865;50.232;18.614;2022-08-19T09:48:15;9.38;;;5.47;;
73585;SDS011;61865;50.232;18.614;2022-08-19T09:50:36;16.67;;;5.78;;
73585;SDS011;61865;50.232;18.614;2022-08-19T09:52:59;38.92;;;8.45;;
73585;SDS011;61865;50.232;18.614;2022-08-19T09:55:21;27.30;;;7.03;;
73585;SDS011;61865;50.232;18.614;2022-08-19T09:57:43;11.35;;;5.80;;
73585;SDS011;61865;50.232;18.614;2022-08-19T10:00:06;15.20;;;5.45;;
73585;SDS011;61865;50.232;18.614;2022-08-19T10:02:31;10.38;;;5.50;;
73585;SDS011;61865;50.232;18.614;2022-08-19T10:04:53;15.50;;;5.97;;
73585;SDS011;61865;50.232;18.614;2022-08-19T10:07:32;11.05;;;6.00;;
73585;SDS011;61865;50.232;18.614;2022-08-19T10:09:54;13.00;;;5.75;;
73585;SDS011;61865;50.232;18.614;2022-08-19T10:12:16;14.25;;;6.20;;
73585;SDS011;61865;50.232;18.614;2022-08-19T10:14:38;16.65;;;6.47;;
73585;SDS011;61865;50.232;18.614;2022-08-19T10:17:00;11.10;;;6.10;;
73585;SDS011;61865;50.232;18.614;2022-08-19T10:19:25;11.75;;;5.85;;
73585;SDS011;61865;50.232;18.614;2022-08-19T10:21:48;16.95;;;6.00;;
73585;SDS011;61865;50.232;18.614;2022-08-19T10:24:10;12.02;;;6.30;;
73585;SDS011;61865;50.232;18.614;2022-08-19T10:26:33;11.90;;;6.10;;
73585;SDS011;61865;50.232;18.614;2022-08-19T10:28:57;12.63;;;6.15;;
73585;SDS011;61865;50.232;18.614;2022-08-19T10:31:20;13.30;;;5.72;;
73585;SDS011;61865;50.232;18.614;2022-08-19T10:33:43;17.23;;;5.72;;
73585;SDS011;61865;50.232;18.614;2022-08-19T10:36:07;13.45;;;6.15;;
73585;SDS011;61865;50.232;18.614;2022-08-19T10:38:32;19.08;;;5.85;;
73585;SDS011;61865;50.232;18.614;2022-08-19T10:40:54;14.88;;;5.35;;
73585;SDS011;61865;50.232;18.614;2022-08-19T10:43:15;21.35;;;5.43;;
73585;SDS011;61865;50.232;18.614;2022-08-19T10:45:37;12.02;;;5.03;;
73585;SDS011;61865;50.232;18.614;2022-08-19T10:47:59;15.23;;;5.53;;
73585;SDS011;61865;50.232;18.614;2022-08-19T10:50:21;13.50;;;5.28;;
73585;SDS011;61865;50.232;18.614;2022-08-19T10:53:04;13.52;;;5.35;;
73585;SDS011;61865;50.232;18.614;2022-08-19T10:55:28;13.57;;;5.18;;
73585;SDS011;61865;50.232;18.614;2022-08-19T10:58:11;14.50;;;5.40;;
73585;SDS011;61865;50.232;18.614;2022-08-19T11:00:34;12.77;;;5.03;;
73585;SDS011;61865;50.232;18.614;2022-08-19T11:02:56;18.02;;;5.82;;
73585;SDS011;61865;50.232;18.614;2022-08-19T11:05:18;14.68;;;4.85;;
73585;SDS011;61865;50.232;18.614;2022-08-19T11:07:42;9.48;;;4.75;;
73585;SDS011;61865;50.232;18.614;2022-08-19T11:10:07;15.20;;;5.35;;
73585;SDS011;61865;50.232;18.614;2022-08-19T11:12:31;10.68;;;5.15;;
73585;SDS011;61865;50.232;18.614;2022-08-19T11:14:53;12.32;;;4.88;;
73585;SDS011;61865;50.232;18.614;2022-08-19T11:17:15;10.73;;;4.68;;
73585;SDS011;61865;50.232;18.614;2022-08-19T11:19:37;27.60;;;5.75;;
73585;SDS011;61865;50.232;18.614;2022-08-19T11:21:59;12.63;;;4.90;;
73585;SDS011;61865;50.232;18.614;2022-08-19T11:24:23;13.25;;;4.60;;
73585;SDS011;61865;50.232;18.614;2022-08-19T11:26:49;15.52;;;5.43;;
73585;SDS011;61865;50.232;18.614;2022-08-19T11:29:12;14.07;;;5.28;;
73585;SDS011;61865;50.232;18.614;2022-08-19T11:31:34;13.82;;;5.50;;
73585;SDS011;61865;50.232;18.614;2022-08-19T11:34:00;12.13;;;5.50;;
73585;SDS011;61865;50.232;18.614;2022-08-19T11:36:23;13.50;;;4.97;;
73585;SDS011;61865;50.232;18.614;2022-08-19T11:38:45;10.82;;;4.40;;
73585;SDS011;61865;50.232;18.614;2022-08-19T11:41:08;11.57;;;4.93;;
73585;SDS011;61865;50.232;18.614;2022-08-19T11:43:31;12.20;;;4.85;;
73585;SDS011;61865;50.232;18.614;2022-08-19T11:45:53;11.52;;;5.00;;
73585;SDS011;61865;50.232;18.614;2022-08-19T11:48:15;13.88;;;5.00;;
73585;SDS011;61865;50.232;18.614;2022-08-19T11:50:42;16.80;;;4.85;;
73585;SDS011;61865;50.232;18.614;2022-08-19T11:53:03;10.75;;;4.22;;
73585;SDS011;61865;50.232;18.614;2022-08-19T11:55:26;10.80;;;4.40;;
73585;SDS011;61865;50.232;18.614;2022-08-19T11:57:47;12.18;;;4.55;;
73585;SDS011;61865;50.232;18.614;2022-08-19T12:00:12;11.10;;;4.18;;
73585;SDS011;61865;50.232;18.614;2022-08-19T12:02:34;9.35;;;4.60;;
73585;SDS011;61865;50.232;18.614;2022-08-19T12:04:56;16.33;;;5.18;;
73585;SDS011;61865;50.232;18.614;2022-08-19T12:07:18;20.90;;;5.07;;
73585;SDS011;61865;50.232;18.614;2022-08-19T12:09:40;12.15;;;4.40;;
73585;SDS011;61865;50.232;18.614;2022-08-19T12:12:03;16.40;;;4.63;;
73585;SDS011;61865;50.232;18.614;2022-08-19T12:14:25;19.73;;;4.90;;
73585;SDS011;61865;50.232;18.614;2022-08-19T12:16:49;11.32;;;4.70;;
73585;SDS011;61865;50.232;18.614;2022-08-19T12:19:11;17.08;;;4.35;;
73585;SDS011;61865;50.232;18.614;2022-08-19T12:21:34;13.77;;;4.68;;
73585;SDS011;61865;50.232;18.614;2022-08-19T12:23:57;19.67;;;5.20;;
73585;SDS011;61865;50.232;18.614;2022-08-19T12:26:21;22.77;;;5.03;;
73585;SDS011;61865;50.232;18.614;2022-08-19T12:28:43;15.88;;;4.43;;
73585;SDS011;61865;50.232;18.614;2022-08-19T12:31:05;11.10;;;3.80;;
73585;SDS011;61865;50.232;18.614;2022-08-19T12:33:29;16.85;;;4.95;;
73585;SDS011;61865;50.232;18.614;2022-08-19T12:35:51;14.85;;;4.78;;
73585;SDS011;61865;50.232;18.614;2022-08-19T12:38:13;18.73;;;4.78;;
73585;SDS011;61865;50.232;18.614;2022-08-19T12:40:35;11.93;;;4.03;;
73585;SDS011;61865;50.232;18.614;2022-08-19T12:42:59;11.48;;;4.63;;
73585;SDS011;61865;50.232;18.614;2022-08-19T12:45:20;13.65;;;4.47;;
73585;SDS011;61865;50.232;18.614;2022-08-19T12:47:42;11.77;;;4.28;;
73585;SDS011;61865;50.232;18.614;2022-08-19T12:50:07;15.00;;;4.60;;
73585;SDS011;61865;50.232;18.614;2022-08-19T12:52:29;15.43;;;4.90;;
73585;SDS011;61865;50.232;18.614;2022-08-19T12:54:51;17.05;;;5.07;;
73585;SDS011;61865;50.232;18.614;2022-08-19T12:57:15;15.05;;;4.47;;
73585;SDS011;61865;50.232;18.614;2022-08-19T12:59:37;12.23;;;4.60;;
73585;SDS011;61865;50.232;18.614;2022-08-19T13:02:01;11.95;;;4.55;;
73585;SDS011;61865;50.232;18.614;2022-08-19T13:04:25;14.75;;;5.07;;
73585;SDS011;61865;50.232;18.614;2022-08-19T13:06:49;8.73;;;4.53;;
73585;SDS011;61865;50.232;18.614;2022-08-19T13:09:11;8.20;;;4.75;;
73585;SDS011;61865;50.232;18.614;2022-08-19T13:11:33;13.93;;;4.65;;
73585;SDS011;61865;50.232;18.614;2022-08-19T13:13:55;13.20;;;4.53;;
73585;SDS011;61865;50.232;18.614;2022-08-19T13:16:17;21.83;;;5.28;;
73585;SDS011;61865;50.232;18.614;2022-08-19T13:18:42;12.68;;;4.45;;
73585;SDS011;61865;50.232;18.614;2022-08-19T13:21:08;13.68;;;4.80;;
73585;SDS011;61865;50.232;18.614;2022-08-19T13:23:34;10.75;;;4.50;;
73585;SDS011;61865;50.232;18.614;2022-08-19T13:25:57;36.67;;;6.03;;
73585;SDS011;61865;50.232;18.614;2022-08-19T13:28:20;10.02;;;4.97;;
73585;SDS011;61865;50.232;18.614;2022-08-19T13:30:41;20.73;;;5.30;;
73585;SDS011;61865;50.232;18.614;2022-08-19T13:33:24;13.57;;;4.22;;
73585;SDS011;61865;50.232;18.614;2022-08-19T13:35:47;12.00;;;4.80;;
73585;SDS011;61865;50.232;18.614;2022-08-19T13:38:11;9.20;;;4.47;;
73585;SDS011;61865;50.232;18.614;2022-08-19T13:40:36;14.95;;;4.75;;
73585;SDS011;61865;50.232;18.614;2022-08-19T13:42:59;8.63;;;4.53;;
73585;SDS011;61865;50.232;18.614;2022-08-19T13:45:22;16.83;;;5.00;;
73585;SDS011;61865;50.232;18.614;2022-08-19T13:47:46;10.80;;;4.65;;
73585;SDS011;61865;50.232;18.614;2022-08-19T13:50:09;11.98;;;4.72;;
73585;SDS011;61865;50.232;18.614;2022-08-19T13:52:31;9.98;;;4.68;;
73585;SDS011;61865;50.232;18.614;2022-08-19T13:54:53;11.32;;;4.47;;
73585;SDS011;61865;50.232;18.614;2022-08-19T13:57:17;20.10;;;5.00;;
73585;SDS011;61865;50.232;18.614;2022-08-19T13:59:39;14.40;;;5.00;;